createdAt,value
2023-05-22T00:18:56.764Z,34.33
2023-05-22T00:38:56.759Z,34.34
2023-05-22T00:58:56.724Z,34.34
2023-05-22T02:58:56.595Z,34.39
2023-05-22T03:58:56.514Z,34.41
2023-05-22T04:18:56.529Z,34.41
2023-05-22T04:38:56.468Z,35.09
2023-05-22T04:58:56.442Z,34.68
2023-05-22T05:18:56.437Z,34.68
2023-05-22T05:38:56.418Z,34.69
2023-05-22T05:58:56.359Z,34.42
2023-05-22T06:18:56.405Z,34.43
2023-05-22T06:38:56.313Z,34.44
2023-05-22T06:58:56.285Z,34.44
2023-05-22T07:18:56.302Z,34.76
2023-05-22T07:38:56.223Z,34.68
2023-05-22T07:58:56.188Z,34.6
2023-05-22T08:18:56.217Z,34.44
2023-05-22T08:38:56.126Z,34.43
2023-05-22T08:58:56.157Z,34.42
2023-05-22T09:38:56.056Z,34.37
2023-05-22T10:18:56.055Z,34.61
2023-05-22T10:38:55.987Z,34.48
2023-05-22T12:18:55.804Z,34
2023-05-22T12:38:55.776Z,33.96
2023-05-22T12:58:55.749Z,33.91
2023-05-22T15:58:55.484Z,33.48
2023-05-22T17:18:55.374Z,33.41
2023-05-22T17:38:55.343Z,33.42
2023-05-22T17:58:55.288Z,33.42
2023-05-22T18:18:55.288Z,33.42
2023-05-22T18:38:55.248Z,33.43
2023-05-22T18:58:55.201Z,33.43
2023-05-22T19:18:55.258Z,33.43
2023-05-22T19:38:55.150Z,33.44
2023-05-22T19:58:55.118Z,33.45
2023-05-22T20:18:55.112Z,33.46
2023-05-22T20:38:55.059Z,33.46
2023-05-22T20:58:55.032Z,33.47
2023-05-22T21:18:55.030Z,33.47
2023-05-22T21:38:55.060Z,33.48
2023-05-22T21:58:54.959Z,33.49
2023-05-22T22:18:54.962Z,33.5
2023-05-22T22:38:54.918Z,33.51
2023-05-22T22:58:54.887Z,33.52
2023-05-22T23:18:54.888Z,33.52
2023-05-22T23:38:54.844Z,33.53
2023-05-22T23:58:54.815Z,33.53
